createdAt,value
2022-09-02T00:00:30.289Z,0.90
2022-09-02T00:01:35.088Z,0.80
2022-09-02T00:02:36.902Z,0.80
2022-09-02T00:03:39.837Z,1.00
2022-09-02T00:04:43.977Z,0.70
2022-09-02T00:05:47.131Z,0.70
2022-09-02T00:06:52.048Z,0.70
2022-09-02T00:07:54.579Z,0.63
2022-09-02T00:08:57.518Z,0.70
2022-09-02T00:10:00.528Z,0.80
2022-09-02T00:11:06.477Z,0.80
2022-09-02T00:12:10.698Z,0.80
2022-09-02T00:13:16.651Z,0.80
2022-09-02T00:14:22.578Z,0.98
2022-09-02T00:15:24.465Z,0.65
2022-09-02T00:16:27.169Z,0.77
2022-09-02T00:17:29.072Z,0.80
2022-09-02T00:18:32.301Z,1.10
2022-09-02T00:19:34.437Z,0.70
2022-09-02T00:20:37.117Z,0.77
2022-09-02T00:21:40.124Z,0.90
2022-09-02T00:22:42.829Z,0.70
2022-09-02T00:23:45.533Z,0.68
2022-09-02T00:24:48.118Z,0.73
2022-09-02T00:25:49.835Z,0.90
2022-09-02T00:26:55.327Z,0.73
2022-09-02T00:27:58.532Z,0.82
2022-09-02T00:29:01.292Z,0.68
2022-09-02T00:30:03.552Z,0.77
2022-09-02T00:31:06.664Z,0.60
2022-09-02T00:32:08.364Z,0.80
2022-09-02T00:33:12.401Z,0.73
2022-09-02T00:34:14.169Z,0.60
2022-09-02T00:35:16.821Z,0.77
2022-09-02T00:36:18.573Z,0.70
2022-09-02T00:37:22.933Z,0.80
2022-09-02T00:38:24.574Z,0.63
2022-09-02T00:39:29.858Z,0.60
2022-09-02T00:40:34.638Z,0.80
2022-09-02T00:41:41.081Z,0.93
2022-09-02T00:42:44.087Z,0.70
2022-09-02T00:43:52.950Z,0.80
2022-09-02T00:44:57.168Z,0.90
2022-09-02T00:46:00.177Z,0.88
2022-09-02T00:47:01.984Z,1.10
2022-09-02T00:48:05.338Z,0.73
2022-09-02T00:49:10.024Z,0.93
2022-09-02T00:50:17.105Z,0.80
2022-09-02T00:51:21.429Z,1.00
2022-09-02T00:52:31.805Z,0.70
2022-09-02T00:53:33.874Z,0.80
2022-09-02T00:54:42.883Z,0.90
2022-09-02T00:55:47.269Z,0.70
2022-09-02T00:56:50.562Z,0.82
2022-09-02T00:58:00.767Z,0.98
2022-09-02T00:59:03.491Z,1.50
2022-09-02T01:00:09.010Z,0.57
2022-09-02T01:01:12.785Z,0.40
2022-09-02T01:02:15.561Z,0.60
2022-09-02T01:03:24.113Z,0.70
2022-09-02T01:04:26.082Z,0.90
2022-09-02T01:05:31.263Z,0.80
2022-09-02T01:06:34.023Z,0.90
2022-09-02T01:07:40.539Z,0.60
2022-09-02T01:08:49.019Z,0.80
2022-09-02T01:09:53.117Z,0.80
2022-09-02T01:10:59.129Z,0.70
2022-09-02T01:12:03.898Z,0.60
2022-09-02T01:13:10.001Z,0.80
2022-09-02T01:14:14.923Z,0.75
2022-09-02T01:15:19.343Z,0.85
2022-09-02T01:16:25.090Z,1.08
2022-09-02T01:17:28.335Z,0.80
2022-09-02T01:18:32.755Z,0.80
2022-09-02T01:19:40.489Z,0.80
2022-09-02T01:20:44.457Z,0.80
2022-09-02T01:21:51.814Z,0.70
2022-09-02T01:22:55.623Z,0.88
2022-09-02T01:23:59.764Z,0.70
2022-09-02T01:25:06.255Z,0.90
2022-09-02T01:26:08.940Z,0.60
2022-09-02T01:27:14.923Z,0.70
2022-09-02T01:28:19.628Z,0.60
2022-09-02T01:29:24.084Z,0.77
2022-09-02T01:30:29.883Z,0.95
2022-09-02T01:31:34.186Z,0.93
2022-09-02T01:32:38.205Z,0.88
2022-09-02T01:33:40.046Z,0.65
2022-09-02T01:34:42.723Z,0.80
2022-09-02T01:35:45.016Z,0.77
2022-09-02T01:36:48.982Z,0.70
2022-09-02T01:37:55.814Z,0.93
2022-09-02T01:38:58.718Z,0.80
2022-09-02T01:40:00.842Z,0.65
2022-09-02T01:41:03.640Z,0.88
2022-09-02T01:42:05.615Z,0.70
2022-09-02T01:43:12.217Z,1.00
2022-09-02T01:44:14.458Z,0.70
2022-09-02T01:45:17.233Z,0.70
2022-09-02T01:46:19.012Z,0.50
2022-09-02T01:47:24.076Z,1.88
2022-09-02T01:48:26.581Z,0.90
2022-09-02T01:49:29.179Z,0.85
2022-09-02T01:50:34.460Z,0.80
2022-09-02T01:51:37.700Z,0.95
2022-09-02T01:52:41.402Z,0.80
2022-09-02T01:53:44.262Z,0.90
2022-09-02T01:54:46.375Z,0.85
2022-09-02T01:55:49.227Z,0.70
2022-09-02T01:56:50.890Z,0.52
2022-09-02T01:57:53.554Z,0.88
2022-09-02T01:58:55.349Z,0.80
2022-09-02T01:59:57.942Z,0.55
2022-09-02T02:00:59.587Z,0.70
2022-09-02T02:02:02.464Z,0.82
2022-09-02T02:03:04.350Z,0.80
2022-09-02T02:04:12.721Z,0.70
2022-09-02T02:05:15.826Z,0.80
2022-09-02T02:06:18.474Z,0.90
2022-09-02T02:07:22.487Z,0.82
2022-09-02T02:08:26.697Z,0.85
2022-09-02T02:09:28.445Z,1.00
2022-09-02T02:10:31.039Z,0.80
2022-09-02T02:11:32.716Z,0.70
2022-09-02T02:12:35.359Z,0.70
2022-09-02T02:13:37.513Z,0.75
2022-09-02T02:14:40.129Z,0.93
2022-09-02T02:15:43.208Z,0.80
2022-09-02T02:16:46.027Z,1.10
2022-09-02T02:17:48.036Z,0.60
2022-09-02T02:18:50.676Z,0.68
2022-09-02T02:19:52.355Z,0.70
2022-09-02T02:20:55.046Z,0.80
2022-09-02T02:21:56.843Z,0.80
2022-09-02T02:22:59.436Z,0.77
2022-09-02T02:24:02.961Z,0.77
2022-09-02T02:25:06.652Z,0.55
2022-09-02T02:26:08.507Z,0.90
2022-09-02T02:27:11.657Z,0.73
2022-09-02T02:28:14.637Z,0.70
2022-09-02T02:29:17.236Z,0.60
2022-09-02T02:30:19.170Z,0.70
2022-09-02T02:31:21.986Z,0.73
2022-09-02T02:32:25.972Z,0.70
2022-09-02T02:33:31.957Z,0.80
2022-09-02T02:34:39.356Z,0.93
2022-09-02T02:35:42.097Z,0.77
2022-09-02T02:36:43.777Z,1.00
2022-09-02T02:37:49.098Z,0.85
2022-09-02T02:38:50.764Z,0.70
2022-09-02T02:39:56.092Z,0.82
2022-09-02T02:40:58.395Z,0.82
2022-09-02T02:42:00.967Z,0.70
2022-09-02T02:43:02.591Z,1.00
2022-09-02T02:44:05.556Z,0.82
2022-09-02T02:45:14.988Z,0.82
2022-09-02T02:46:19.111Z,0.50
2022-09-02T02:47:21.007Z,0.70
2022-09-02T02:48:23.681Z,0.77
2022-09-02T02:49:26.855Z,0.73
2022-09-02T02:50:29.431Z,0.88
2022-09-02T02:51:31.119Z,0.70
2022-09-02T02:52:33.685Z,0.90
2022-09-02T02:53:36.791Z,0.80
2022-09-02T02:54:42.495Z,1.00
2022-09-02T02:55:49.931Z,0.63
2022-09-02T02:56:54.379Z,0.80
2022-09-02T02:57:56.009Z,0.80
2022-09-02T02:59:00.862Z,0.90
2022-09-02T03:00:05.920Z,0.77
2022-09-02T03:01:08.814Z,0.70
2022-09-02T03:02:10.710Z,0.98
2022-09-02T03:03:13.674Z,0.80
2022-09-02T03:04:15.446Z,0.80
2022-09-02T03:05:18.475Z,0.80
2022-09-02T03:06:21.915Z,0.85
2022-09-02T03:07:29.158Z,1.15
2022-09-02T03:08:30.815Z,1.02
2022-09-02T03:09:33.829Z,0.70
2022-09-02T03:10:35.763Z,0.80
2022-09-02T03:11:39.716Z,0.70
2022-09-02T03:12:41.557Z,0.98
2022-09-02T03:13:44.142Z,0.80
2022-09-02T03:14:45.726Z,0.80
2022-09-02T03:15:48.805Z,0.73
2022-09-02T03:16:50.545Z,1.08
2022-09-02T03:17:53.452Z,0.80
2022-09-02T03:18:55.153Z,0.98
2022-09-02T03:19:59.470Z,0.95
2022-09-02T03:21:01.153Z,1.40
2022-09-02T03:22:04.605Z,0.75
2022-09-02T03:23:06.332Z,0.68
2022-09-02T03:24:09.569Z,0.80
2022-09-02T03:25:15.150Z,0.80
2022-09-02T03:26:19.771Z,1.00
2022-09-02T03:27:22.752Z,0.70
2022-09-02T03:28:25.728Z,0.70
2022-09-02T03:29:27.416Z,1.00
2022-09-02T03:30:31.716Z,0.90
2022-09-02T03:31:33.424Z,0.80
2022-09-02T03:32:36.089Z,1.30
2022-09-02T03:33:37.729Z,0.70
2022-09-02T03:34:41.691Z,0.63
2022-09-02T03:35:44.497Z,1.08
2022-09-02T03:36:47.156Z,0.90
2022-09-02T03:37:50.024Z,0.68
2022-09-02T03:38:52.933Z,0.70
2022-09-02T03:39:54.563Z,1.00
2022-09-02T03:40:57.198Z,1.00
2022-09-02T03:41:59.805Z,0.85
2022-09-02T03:43:04.379Z,0.80
2022-09-02T03:44:07.001Z,1.02
2022-09-02T03:45:13.427Z,0.75
2022-09-02T03:46:16.675Z,0.73
2022-09-02T03:47:20.763Z,0.80
2022-09-02T03:48:28.219Z,1.13
2022-09-02T03:49:30.001Z,0.55
2022-09-02T03:50:36.429Z,1.10
2022-09-02T03:51:40.626Z,1.00
2022-09-02T03:52:43.228Z,0.88
2022-09-02T03:53:44.906Z,0.80
2022-09-02T03:54:47.533Z,0.90
2022-09-02T03:55:49.497Z,1.10
2022-09-02T03:56:53.574Z,0.80
2022-09-02T03:57:55.705Z,0.70
2022-09-02T03:59:00.104Z,1.00
2022-09-02T04:00:05.059Z,1.10
2022-09-02T04:01:08.133Z,0.50
2022-09-02T04:02:10.398Z,0.90
2022-09-02T04:03:13.317Z,0.88
2022-09-02T04:04:15.778Z,0.73
2022-09-02T04:05:20.413Z,0.75
2022-09-02T04:06:24.705Z,1.00
2022-09-02T04:07:28.844Z,1.00
2022-09-02T04:08:30.483Z,0.90
2022-09-02T04:09:33.065Z,0.90
2022-09-02T04:10:34.691Z,0.80
2022-09-02T04:11:37.453Z,0.93
2022-09-02T04:12:39.454Z,0.80
2022-09-02T04:13:42.212Z,1.00
2022-09-02T04:14:45.245Z,0.77
2022-09-02T04:15:49.349Z,0.80
2022-09-02T04:16:51.216Z,0.90
2022-09-02T04:17:53.864Z,1.48
2022-09-02T04:18:56.402Z,0.85
2022-09-02T04:19:59.001Z,0.93
2022-09-02T04:21:01.080Z,0.77
2022-09-02T04:22:03.756Z,0.80
2022-09-02T04:23:05.832Z,0.80
2022-09-02T04:24:10.256Z,0.88
2022-09-02T04:25:12.248Z,0.85
2022-09-02T04:26:16.480Z,1.10
2022-09-02T04:27:18.183Z,1.10
2022-09-02T04:28:21.187Z,0.80
2022-09-02T04:29:24.174Z,1.25
2022-09-02T04:30:28.186Z,1.00
2022-09-02T04:31:30.896Z,0.80
2022-09-02T04:32:37.125Z,0.93
2022-09-02T04:33:42.234Z,0.73
2022-09-02T04:34:44.980Z,0.60
2022-09-02T04:35:48.029Z,0.90
2022-09-02T04:36:50.657Z,1.08
2022-09-02T04:37:52.381Z,1.13
2022-09-02T04:38:55.952Z,0.98
2022-09-02T04:39:58.268Z,1.00
2022-09-02T04:41:01.252Z,1.20
2022-09-02T04:42:03.029Z,0.80
2022-09-02T04:43:05.656Z,0.80
2022-09-02T04:44:07.491Z,1.10
2022-09-02T04:45:11.839Z,1.00
2022-09-02T04:46:16.287Z,1.30
2022-09-02T04:47:20.068Z,0.85
2022-09-02T04:48:23.025Z,1.27
2022-09-02T04:49:25.643Z,1.33
2022-09-02T04:50:27.308Z,1.10
2022-09-02T04:51:29.996Z,1.20
2022-09-02T04:52:31.722Z,0.90
2022-09-02T04:53:34.727Z,1.10
2022-09-02T04:54:38.797Z,1.30
2022-09-02T04:55:41.838Z,0.88
2022-09-02T04:56:44.528Z,1.10
2022-09-02T04:57:46.114Z,1.00
2022-09-02T04:58:50.231Z,1.38
2022-09-02T04:59:51.933Z,1.50
2022-09-02T05:00:54.720Z,0.90
2022-09-02T05:01:57.762Z,1.40
2022-09-02T05:03:00.511Z,1.20
2022-09-02T05:04:04.825Z,1.00
2022-09-02T05:05:08.590Z,1.08
2022-09-02T05:06:13.026Z,1.10
2022-09-02T05:07:16.091Z,1.08
2022-09-02T05:08:18.466Z,1.15
2022-09-02T05:09:21.184Z,0.98
2022-09-02T05:10:22.982Z,1.08
2022-09-02T05:11:28.294Z,1.02
2022-09-02T05:12:31.649Z,1.00
2022-09-02T05:13:34.241Z,1.13
2022-09-02T05:14:35.876Z,0.90
2022-09-02T05:15:40.176Z,0.95
2022-09-02T05:16:42.804Z,1.20
2022-09-02T05:17:46.806Z,1.60
2022-09-02T05:18:48.701Z,0.98
2022-09-02T05:19:51.322Z,1.23
2022-09-02T05:20:53.159Z,0.85
2022-09-02T05:21:58.943Z,0.80
2022-09-02T05:23:00.593Z,2.05
2022-09-02T05:24:03.694Z,1.00
2022-09-02T05:25:08.688Z,1.10
2022-09-02T05:26:13.588Z,1.33
2022-09-02T05:27:16.250Z,1.20
2022-09-02T05:28:19.039Z,1.05
2022-09-02T05:29:20.943Z,1.08
2022-09-02T05:30:23.627Z,1.02
2022-09-02T05:31:25.555Z,1.02
2022-09-02T05:32:28.476Z,1.65
2022-09-02T05:33:31.687Z,1.20
2022-09-02T05:34:35.726Z,1.20
2022-09-02T05:35:40.659Z,1.25
2022-09-02T05:36:48.071Z,1.48
2022-09-02T05:37:49.660Z,1.35
2022-09-02T05:38:52.505Z,1.17
2022-09-02T05:39:54.299Z,1.25
2022-09-02T05:40:57.187Z,1.52
2022-09-02T05:41:58.869Z,1.20
2022-09-02T05:43:01.438Z,0.93
2022-09-02T05:44:04.195Z,1.30
2022-09-02T05:45:09.180Z,1.10
2022-09-02T05:46:12.550Z,1.17
2022-09-02T05:47:15.302Z,1.33
2022-09-02T05:48:35.788Z,1.30
2022-09-02T05:49:40.155Z,1.05
2022-09-02T05:50:41.934Z,1.10
2022-09-02T05:51:46.822Z,1.10
2022-09-02T05:52:50.395Z,1.33
2022-09-02T05:53:53.803Z,1.20
2022-09-02T05:55:01.191Z,1.17
2022-09-02T05:56:05.541Z,1.08
2022-09-02T05:57:10.566Z,1.40
2022-09-02T05:58:12.179Z,1.05
2022-09-02T05:59:15.447Z,1.00
2022-09-02T06:00:18.175Z,1.17
2022-09-02T06:01:21.056Z,1.25
2022-09-02T06:02:24.186Z,1.20
2022-09-02T06:03:26.912Z,1.00
2022-09-02T06:04:28.915Z,1.17
2022-09-02T06:05:32.989Z,1.10
2022-09-02T06:06:35.915Z,0.93
2022-09-02T06:07:38.617Z,0.90
2022-09-02T06:08:40.258Z,1.10
2022-09-02T06:09:44.663Z,1.30
2022-09-02T06:10:46.323Z,1.17
2022-09-02T06:11:49.580Z,1.35
2022-09-02T06:12:51.313Z,1.15
2022-09-02T06:13:55.377Z,1.17
2022-09-02T06:14:57.003Z,1.30
2022-09-02T06:15:59.631Z,1.00
2022-09-02T06:17:01.277Z,1.58
2022-09-02T06:18:03.927Z,1.48
2022-09-02T06:19:07.227Z,1.25
2022-09-02T06:20:10.853Z,1.10
2022-09-02T06:21:16.057Z,1.17
2022-09-02T06:22:18.662Z,1.30
2022-09-02T06:23:20.428Z,1.30
2022-09-02T06:24:24.350Z,1.13
2022-09-02T06:25:26.021Z,1.52
2022-09-02T06:26:28.624Z,1.30
2022-09-02T06:27:30.287Z,1.17
2022-09-02T06:28:33.466Z,0.93
2022-09-02T06:29:36.052Z,1.00
2022-09-02T06:30:39.425Z,1.70
2022-09-02T06:31:43.143Z,1.40
2022-09-02T06:32:44.759Z,1.55
2022-09-02T06:33:55.178Z,1.45
2022-09-02T06:34:56.789Z,1.25
2022-09-02T06:35:59.384Z,1.20
2022-09-02T06:37:03.276Z,1.00
2022-09-02T06:38:06.194Z,1.30
2022-09-02T06:39:08.889Z,1.50
2022-09-02T06:40:12.590Z,1.27
2022-09-02T06:41:17.432Z,1.17
2022-09-02T06:42:20.039Z,1.63
2022-09-02T06:43:21.785Z,1.17
2022-09-02T06:44:24.479Z,1.30
2022-09-02T06:45:26.245Z,1.02
2022-09-02T06:46:31.226Z,1.50
2022-09-02T06:47:33.924Z,1.98
2022-09-02T06:48:35.557Z,1.40
2022-09-02T06:49:38.163Z,1.00
2022-09-02T06:50:41.346Z,1.20
2022-09-02T06:51:45.283Z,1.20
2022-09-02T06:52:49.203Z,1.27
2022-09-02T06:53:51.331Z,1.38
2022-09-02T06:54:54.909Z,1.50
2022-09-02T06:55:56.652Z,1.10
2022-09-02T06:56:59.253Z,1.08
2022-09-02T06:58:00.886Z,1.08
2022-09-02T06:59:04.836Z,1.30
2022-09-02T07:00:09.296Z,1.17
2022-09-02T07:01:19.029Z,1.20
2022-09-02T07:02:20.678Z,1.27
2022-09-02T07:03:40.677Z,1.20
2022-09-02T07:05:00.992Z,1.08
2022-09-02T07:06:09.298Z,1.08
2022-09-02T07:07:12.300Z,0.90
2022-09-02T07:08:15.249Z,1.20
2022-09-02T07:09:19.658Z,1.10
2022-09-02T07:10:21.535Z,1.20
2022-09-02T07:11:25.132Z,1.10
2022-09-02T07:12:27.259Z,1.40
2022-09-02T07:13:29.857Z,1.45
2022-09-02T07:14:31.645Z,1.10
2022-09-02T07:15:34.623Z,1.10
2022-09-02T07:16:41.779Z,1.15
2022-09-02T07:17:45.122Z,1.10
2022-09-02T07:18:46.754Z,1.02
2022-09-02T07:19:49.641Z,1.55
2022-09-02T07:20:52.438Z,1.40
2022-09-02T07:21:54.319Z,0.98
2022-09-02T07:22:57.096Z,1.10
2022-09-02T07:24:00.424Z,1.60
2022-09-02T07:25:03.040Z,1.00
2022-09-02T07:26:04.920Z,1.15
2022-09-02T07:27:07.707Z,1.10
2022-09-02T07:28:10.915Z,1.35
2022-09-02T07:29:12.705Z,1.17
2022-09-02T07:30:15.344Z,1.30
2022-09-02T07:31:18.780Z,1.20
2022-09-02T07:32:21.792Z,1.30
2022-09-02T07:33:24.410Z,1.00
2022-09-02T07:34:26.051Z,1.55
2022-09-02T07:35:29.109Z,2.03
2022-09-02T07:36:31.740Z,1.17
2022-09-02T07:37:35.623Z,1.13
2022-09-02T07:38:39.116Z,1.48
2022-09-02T07:39:43.970Z,1.45
2022-09-02T07:40:48.920Z,1.30
2022-09-02T07:41:51.635Z,1.42
2022-09-02T07:42:54.499Z,2.83
2022-09-02T07:43:59.496Z,1.10
2022-09-02T07:45:02.535Z,1.15
2022-09-02T07:46:05.502Z,1.20
2022-09-02T07:47:08.495Z,1.48
2022-09-02T07:48:10.388Z,1.17
2022-09-02T07:49:14.171Z,1.13
2022-09-02T07:50:19.804Z,1.35
2022-09-02T07:51:23.123Z,1.20
2022-09-02T07:52:24.716Z,1.08
2022-09-02T07:53:27.780Z,1.38
2022-09-02T07:54:32.455Z,1.20
2022-09-02T07:55:41.075Z,1.10
2022-09-02T07:56:43.164Z,1.20
2022-09-02T07:57:46.468Z,1.20
2022-09-02T07:58:48.077Z,1.25
2022-09-02T07:59:50.711Z,1.27
2022-09-02T08:00:52.960Z,1.30
2022-09-02T08:01:55.642Z,1.63
2022-09-02T08:02:57.419Z,1.20
2022-09-02T08:04:02.729Z,1.17
2022-09-02T08:05:08.756Z,1.33
2022-09-02T08:06:11.194Z,1.08
2022-09-02T08:07:13.887Z,1.20
2022-09-02T08:08:17.156Z,1.15
2022-09-02T08:09:20.132Z,1.48
2022-09-02T08:10:24.697Z,1.08
2022-09-02T08:11:28.557Z,1.40
2022-09-02T08:12:31.158Z,1.30
2022-09-02T08:13:32.968Z,1.23
2022-09-02T08:14:35.571Z,1.20
2022-09-02T08:15:38.914Z,1.30
2022-09-02T08:16:41.695Z,1.20
2022-09-02T08:17:44.260Z,1.30
2022-09-02T08:18:48.511Z,1.38
2022-09-02T08:19:50.486Z,1.20
2022-09-02T08:20:53.276Z,1.40
2022-09-02T08:21:55.688Z,1.20
2022-09-02T08:23:11.621Z,1.15
2022-09-02T08:24:23.162Z,1.30
2022-09-02T08:25:25.136Z,1.38
2022-09-02T08:26:29.488Z,1.23
2022-09-02T08:27:34.427Z,1.25
2022-09-02T08:28:36.458Z,1.20
2022-09-02T08:29:40.208Z,1.20
2022-09-02T08:30:42.064Z,1.20
2022-09-02T08:31:46.935Z,1.45
2022-09-02T08:32:51.500Z,1.52
2022-09-02T08:33:55.437Z,1.20
2022-09-02T08:34:59.719Z,1.45
2022-09-02T08:36:04.898Z,1.02
2022-09-02T08:37:07.459Z,1.42
2022-09-02T08:38:10.485Z,1.58
2022-09-02T08:39:12.474Z,1.20
2022-09-02T08:40:18.622Z,1.30
2022-09-02T08:41:22.685Z,1.40
2022-09-02T08:42:31.511Z,1.05
2022-09-02T08:43:38.445Z,1.73
2022-09-02T08:44:41.584Z,1.20
2022-09-02T08:45:44.690Z,1.10
2022-09-02T08:46:48.894Z,1.10
2022-09-02T08:47:57.402Z,1.23
2022-09-02T08:49:02.061Z,1.45
2022-09-02T08:50:06.577Z,1.33
2022-09-02T08:51:17.137Z,1.63
2022-09-02T08:52:25.050Z,1.30
2022-09-02T08:53:31.921Z,1.15
2022-09-02T08:54:37.324Z,1.10
2022-09-02T08:55:48.082Z,1.40
2022-09-02T08:56:51.853Z,1.20
2022-09-02T08:57:56.696Z,1.10
2022-09-02T08:59:02.218Z,1.30
2022-09-02T09:00:07.526Z,1.30
2022-09-02T09:01:15.420Z,1.30
2022-09-02T09:02:24.562Z,1.30
2022-09-02T09:03:30.603Z,1.42
2022-09-02T09:04:55.907Z,1.08
2022-09-02T09:06:04.023Z,1.27
2022-09-02T09:07:18.898Z,1.17
2022-09-02T09:08:26.088Z,1.40
2022-09-02T09:09:38.556Z,1.60
2022-09-02T09:10:48.553Z,1.42
2022-09-02T09:11:59.819Z,1.42
2022-09-02T09:13:16.215Z,1.33
2022-09-02T09:14:22.188Z,1.33
2022-09-02T09:15:34.102Z,1.48
2022-09-02T09:16:40.775Z,1.30
2022-09-02T09:17:45.950Z,1.55
2022-09-02T09:18:52.927Z,1.58
2022-09-02T09:19:58.839Z,1.30
2022-09-02T09:21:01.915Z,1.00
2022-09-02T09:22:05.312Z,1.33
2022-09-02T09:23:21.411Z,1.42
2022-09-02T09:24:28.421Z,1.33
2022-09-02T09:25:31.194Z,1.65
2022-09-02T09:26:34.898Z,1.77
2022-09-02T09:27:37.819Z,1.35
2022-09-02T09:28:47.240Z,1.40
2022-09-02T09:29:49.621Z,1.60
2022-09-02T09:30:52.338Z,1.10
2022-09-02T09:31:58.144Z,1.70
2022-09-02T09:33:00.474Z,1.38
2022-09-02T09:34:04.785Z,1.42
2022-09-02T09:35:08.116Z,1.30
2022-09-02T09:36:13.703Z,1.60
2022-09-02T09:37:33.866Z,1.52
2022-09-02T09:38:38.697Z,1.50
2022-09-02T09:39:40.362Z,1.60
2022-09-02T09:40:43.147Z,1.30
2022-09-02T09:41:45.987Z,1.63
2022-09-02T09:42:50.272Z,1.50
2022-09-02T09:43:54.347Z,1.52
2022-09-02T09:44:55.994Z,1.40
2022-09-02T09:45:58.714Z,1.40
2022-09-02T09:47:00.902Z,1.65
2022-09-02T09:48:18.343Z,1.52
2022-09-02T09:49:26.929Z,1.52
2022-09-02T09:50:28.737Z,1.50
2022-09-02T09:51:49.720Z,1.20
2022-09-02T09:52:53.116Z,1.30
2022-09-02T09:54:15.657Z,1.55
2022-09-02T09:55:24.768Z,1.05
2022-09-02T09:56:37.245Z,1.30
2022-09-02T09:57:39.889Z,1.38
2022-09-02T09:58:46.125Z,1.23
2022-09-02T09:59:55.926Z,1.40
2022-09-02T10:01:00.412Z,1.30
2022-09-02T10:02:02.226Z,1.50
2022-09-02T10:03:08.279Z,1.50
2022-09-02T10:04:32.633Z,1.55
2022-09-02T10:05:38.057Z,1.65
2022-09-02T10:06:41.846Z,1.50
2022-09-02T10:07:45.419Z,1.38
2022-09-02T10:08:55.766Z,1.50
2022-09-02T10:10:09.878Z,1.65
2022-09-02T10:11:22.704Z,1.40
2022-09-02T10:12:33.524Z,1.65
2022-09-02T10:13:36.761Z,1.27
2022-09-02T10:14:42.780Z,1.27
2022-09-02T10:16:03.046Z,1.23
2022-09-02T10:17:26.701Z,1.30
2022-09-02T10:18:35.273Z,1.35
2022-09-02T10:19:41.608Z,1.77
2022-09-02T10:22:59.874Z,1.45
2022-09-02T10:24:06.380Z,1.55
2022-09-02T10:25:18.568Z,1.30
2022-09-02T10:26:26.892Z,1.27
2022-09-02T10:27:33.767Z,1.27
2022-09-02T10:28:58.855Z,1.20
2022-09-02T10:30:05.730Z,1.50
2022-09-02T10:31:13.396Z,1.23
2022-09-02T10:32:36.944Z,1.73
2022-09-02T10:33:48.176Z,1.50
2022-09-02T10:34:58.602Z,1.73
2022-09-02T10:36:07.331Z,1.38
2022-09-02T10:37:14.665Z,1.30
2022-09-02T10:38:26.861Z,1.73
2022-09-02T10:39:50.686Z,1.30
2022-09-02T10:40:55.625Z,1.65
2022-09-02T10:42:04.662Z,1.35
2022-09-02T10:43:07.467Z,1.23
2022-09-02T10:44:31.048Z,1.77
2022-09-02T10:45:38.149Z,1.50
2022-09-02T10:47:01.362Z,1.30
2022-09-02T10:48:23.613Z,1.63
2022-09-02T10:49:48.695Z,1.67
2022-09-02T10:50:55.397Z,1.20
2022-09-02T10:52:05.382Z,1.50
2022-09-02T10:53:22.535Z,1.73
2022-09-02T10:54:38.738Z,1.67
2022-09-02T10:55:45.874Z,1.55
2022-09-02T10:56:52.344Z,1.40
2022-09-02T10:57:59.526Z,1.58
2022-09-02T10:59:09.644Z,1.40
2022-09-02T11:00:15.499Z,1.50
2022-09-02T11:01:20.540Z,1.55
2022-09-02T11:02:27.705Z,1.30
2022-09-02T11:03:32.814Z,1.70
2022-09-02T11:04:38.856Z,1.60
2022-09-02T11:05:44.187Z,1.63
2022-09-02T11:07:04.010Z,1.63
2022-09-02T11:08:09.835Z,1.50
2022-09-02T11:09:15.903Z,1.58
2022-09-02T11:10:20.454Z,1.67
2022-09-02T11:11:27.141Z,1.63
2022-09-02T11:12:32.113Z,1.52
2022-09-02T11:13:39.738Z,1.60
2022-09-02T11:14:51.369Z,2.00
2022-09-02T11:15:59.462Z,1.50
2022-09-02T11:17:04.377Z,1.60
2022-09-02T11:19:20.218Z,1.40
2022-09-02T11:20:30.259Z,1.30
2022-09-02T11:21:42.035Z,1.50
2022-09-02T11:22:54.287Z,1.45
2022-09-02T11:24:02.863Z,1.60
2022-09-02T11:25:09.217Z,1.58
2022-09-02T11:26:17.256Z,1.42
2022-09-02T11:27:41.174Z,1.45
2022-09-02T11:28:49.933Z,1.55
2022-09-02T11:30:04.050Z,1.45
2022-09-02T11:31:08.856Z,1.77
2022-09-02T11:32:16.282Z,1.50
2022-09-02T11:33:22.066Z,1.50
2022-09-02T11:34:36.152Z,1.27
2022-09-02T11:35:38.963Z,1.30
2022-09-02T11:36:42.376Z,1.70
2022-09-02T11:37:46.298Z,1.73
2022-09-02T11:38:52.607Z,1.42
2022-09-02T11:40:11.539Z,1.42
2022-09-02T11:41:44.516Z,1.42
2022-09-02T11:42:57.953Z,1.17
2022-09-02T11:44:13.784Z,1.55
2022-09-02T11:45:27.078Z,1.50
2022-09-02T11:46:58.974Z,1.30
2022-09-02T11:48:22.764Z,1.80
2022-09-02T11:49:34.257Z,1.50
2022-09-02T11:50:46.028Z,1.80
2022-09-02T11:52:11.138Z,1.33
2022-09-02T11:53:20.854Z,1.55
2022-09-02T11:54:24.841Z,1.50
2022-09-02T11:55:32.644Z,1.25
2022-09-02T11:56:39.737Z,1.50
2022-09-02T11:57:41.529Z,1.13
2022-09-02T11:58:45.863Z,1.48
2022-09-02T12:00:11.850Z,1.30
2022-09-02T12:01:29.731Z,1.50
2022-09-02T12:02:36.283Z,1.38
2022-09-02T12:04:06.912Z,1.33
2022-09-02T12:05:44.320Z,1.40
2022-09-02T12:07:20.360Z,1.30
2022-09-02T12:09:05.655Z,1.55
2022-09-02T12:10:08.950Z,1.40
2022-09-02T12:11:37.881Z,1.52
2022-09-02T12:13:03.790Z,1.40
2022-09-02T12:14:13.604Z,1.65
2022-09-02T12:15:17.565Z,1.63
2022-09-02T12:16:37.261Z,1.40
2022-09-02T12:18:01.687Z,1.75
2022-09-02T12:19:42.919Z,1.98
2022-09-02T12:21:18.748Z,1.42
2022-09-02T12:22:33.123Z,1.50
2022-09-02T12:24:09.371Z,1.30
2022-09-02T12:25:38.184Z,1.55
2022-09-02T12:27:16.289Z,1.40
2022-09-02T12:28:25.652Z,1.65
2022-09-02T12:29:33.136Z,1.70
2022-09-02T12:31:23.536Z,1.40
2022-09-02T12:33:04.948Z,1.50
2022-09-02T12:34:46.747Z,1.70
2022-09-02T12:35:57.617Z,1.40
2022-09-02T12:37:00.651Z,1.55
2022-09-02T12:38:44.078Z,1.63
2022-09-02T12:39:52.301Z,1.45
2022-09-02T12:40:58.986Z,1.30
2022-09-02T12:42:03.364Z,1.60
2022-09-02T12:43:08.845Z,1.75
2022-09-02T12:44:22.264Z,1.52
2022-09-02T12:45:29.221Z,1.30
2022-09-02T12:46:45.189Z,1.27
2022-09-02T12:47:54.107Z,1.35
2022-09-02T12:49:01.091Z,1.33
2022-09-02T12:50:05.308Z,1.50
2022-09-02T12:51:10.596Z,1.60
2022-09-02T12:52:40.712Z,1.33
2022-09-02T12:53:44.570Z,1.55
2022-09-02T12:54:49.108Z,1.65
2022-09-02T12:55:55.378Z,1.48
2022-09-02T12:56:58.002Z,1.60
2022-09-02T12:58:08.545Z,1.30
2022-09-02T12:59:11.652Z,2.40
2022-09-02T13:00:15.096Z,1.50
2022-09-02T13:01:19.702Z,1.48
2022-09-02T13:02:39.601Z,1.27
2022-09-02T13:03:57.765Z,1.25
2022-09-02T13:05:15.957Z,1.50
2022-09-02T13:06:27.428Z,1.35
2022-09-02T13:08:14.600Z,1.42
2022-09-02T13:09:38.666Z,1.30
2022-09-02T13:11:17.781Z,1.40
2022-09-02T13:13:05.158Z,1.40
2022-09-02T13:14:40.025Z,1.80
2022-09-02T13:15:52.981Z,1.40
2022-09-02T13:17:35.082Z,1.60
2022-09-02T13:19:00.679Z,1.40
2022-09-02T13:20:22.960Z,1.50
2022-09-02T13:21:49.439Z,1.30
2022-09-02T13:23:06.249Z,1.30
2022-09-02T13:24:45.249Z,1.30
2022-09-02T13:25:59.965Z,1.92
2022-09-02T13:27:16.828Z,1.63
2022-09-02T13:28:38.459Z,1.50
2022-09-02T13:30:01.830Z,1.30
2022-09-02T13:31:21.007Z,1.60
2022-09-02T13:32:23.925Z,1.20
2022-09-02T13:33:26.891Z,1.40
2022-09-02T13:34:29.191Z,1.30
2022-09-02T13:35:39.782Z,1.38
2022-09-02T13:36:42.956Z,1.40
2022-09-02T13:37:55.751Z,1.52
2022-09-02T13:39:10.498Z,1.40
2022-09-02T13:40:19.700Z,1.45
2022-09-02T13:41:31.432Z,1.45
2022-09-02T13:42:35.239Z,1.60
2022-09-02T13:43:38.993Z,1.35
2022-09-02T13:44:41.708Z,1.38
2022-09-02T13:45:46.481Z,1.65
2022-09-02T13:46:49.867Z,1.48
2022-09-02T13:47:53.746Z,1.30
2022-09-02T13:48:59.754Z,1.20
2022-09-02T13:50:02.361Z,1.65
2022-09-02T13:51:12.521Z,1.40
2022-09-02T13:52:16.931Z,1.50
2022-09-02T13:53:53.612Z,1.60
2022-09-02T13:54:52.099Z,1.30
2022-09-02T13:55:55.372Z,1.42
2022-09-02T13:56:58.664Z,1.30
2022-09-02T13:58:04.650Z,1.52
2022-09-02T13:59:06.483Z,1.30
2022-09-02T14:00:11.488Z,1.20
2022-09-02T14:01:23.401Z,1.83
2022-09-02T14:02:28.715Z,1.50
2022-09-02T14:03:32.653Z,1.42
2022-09-02T14:04:36.263Z,1.73
2022-09-02T14:05:44.058Z,1.40
2022-09-02T14:06:49.131Z,1.50
2022-09-02T14:07:54.776Z,1.40
2022-09-02T14:09:01.327Z,1.50
2022-09-02T14:10:07.175Z,1.38
2022-09-02T14:11:12.659Z,1.70
2022-09-02T14:12:18.195Z,1.50
2022-09-02T14:13:21.605Z,1.33
2022-09-02T14:14:24.611Z,1.58
2022-09-02T14:15:29.094Z,1.80
2022-09-02T14:16:33.962Z,1.50
2022-09-02T14:17:36.665Z,1.40
2022-09-02T14:18:38.297Z,1.48
2022-09-02T14:19:40.899Z,1.75
2022-09-02T14:20:58.921Z,1.60
2022-09-02T14:22:01.871Z,1.65
2022-09-02T14:23:03.976Z,1.45
2022-09-02T14:24:12.770Z,1.77
2022-09-02T14:25:15.611Z,1.70
2022-09-02T14:26:21.496Z,1.40
2022-09-02T14:27:24.820Z,1.25
2022-09-02T14:28:28.559Z,1.40
2022-09-02T14:29:32.192Z,1.30
2022-09-02T14:30:35.905Z,1.50
2022-09-02T14:31:38.680Z,1.58
2022-09-02T14:32:40.312Z,1.33
2022-09-02T14:33:44.362Z,1.70
2022-09-02T14:34:47.013Z,1.40
2022-09-02T14:36:03.482Z,1.45
2022-09-02T14:37:18.546Z,1.25
2022-09-02T14:38:24.802Z,1.40
2022-09-02T14:39:27.803Z,1.80
2022-09-02T14:40:35.515Z,1.20
2022-09-02T14:41:44.015Z,1.40
2022-09-02T14:42:52.628Z,1.67
2022-09-02T14:43:59.267Z,1.45
2022-09-02T14:45:03.217Z,1.45
2022-09-02T14:46:08.486Z,1.40
2022-09-02T14:47:16.261Z,1.50